OIMB 
Birjand Airport
Birjand, Iran 
ICAOStatus
OIMBOperational
LatitudeLongitude
32° 53' 53" N59° 15' 57" E
32.89805659.266111
Local Time (DST+5)UTC (GMT+4)
04-24-2014 07:46 am04-24-2014 03:16
Sunrise-SunsetLocalUTC
Begin Civil Twilight05:25 am00:55
Sunrise05:51 am01:21
Sunset07:10 pm14:40
End Civil Twilight07:36 pm15:06

Current Weather

METARObservedFlight Conditions

OIMB 240300Z 00000KT 7000 SKC 15/12 Q1016

Thu, Apr 24, 2014 @ 03:00 UTC(Z)

(16 Minutes ago)

MVFR

(Marginal Visual Flight Rules)

WindVisibilityCloudsConditions
Calm
7000 meters
  • Clear skies
  • No significant weather
TemperaturesReadingsPrecipitation
Current Temp15°C (59°F)
Dewpoint12°C (54°F)
Humidity82%
Altimeter30"Hg
Sea Level Pressure1016mb
Field Elevation4891.73'
None Recorded

Additional weather within a 185.2km radius of OIMB

Location METAR
OIMD

170.2km N (342°)

1 hour, 16 minutes ago
VFR VFR    MVFR MVFR    IFR IFR    LIFR LIFR    Unknown Unknown

Previous 24 hour Weather Graphs

  Loading...

CheckWX.com is intended as a tool to help pilots better visualize weather data.   It is not intended as a substitute for an official weather briefing obtained from a Flight Service Station.
CheckWX.com does not meet the FAA requirements for an official pre-flight weather briefing.   Therefore, it's important that pilots still call and obtain an official FSS pre-flight weather briefing.